createdAt,value
2019-05-26T00:00:12.253Z,11.79
2019-05-26T00:05:15.815Z,11.61
2019-05-26T00:10:20.165Z,11.55
2019-05-26T00:15:23.572Z,11.57
2019-05-26T00:20:26.996Z,11.66
2019-05-26T00:25:30.788Z,11.82
2019-05-26T00:30:34.227Z,11.89
2019-05-26T00:35:37.711Z,11.69
2019-05-26T00:40:41.149Z,11.42
2019-05-26T00:45:44.929Z,11.40
2019-05-26T00:50:48.375Z,11.11
2019-05-26T00:55:51.870Z,10.76
2019-05-26T01:00:55.318Z,11.04
2019-05-26T01:05:59.157Z,11.09
2019-05-26T01:11:02.638Z,11.09
2019-05-26T01:16:06.063Z,11.22
2019-05-26T01:21:09.484Z,10.91
2019-05-26T01:26:12.899Z,10.92
2019-05-26T01:31:16.394Z,11.23
2019-05-26T01:36:20.163Z,10.98
2019-05-26T01:41:23.611Z,10.76
2019-05-26T01:46:27.025Z,10.85
2019-05-26T01:51:30.442Z,10.70
2019-05-26T01:56:33.909Z,10.56
2019-05-26T02:01:37.463Z,10.57
2019-05-26T02:06:40.865Z,10.54
2019-05-26T02:11:44.285Z,10.66
2019-05-26T02:16:47.878Z,10.67
2019-05-26T02:21:51.315Z,10.52
2019-05-26T02:26:54.736Z,10.49
2019-05-26T02:31:58.178Z,10.30
2019-05-26T02:37:01.604Z,10.34
2019-05-26T02:42:05.483Z,10.24
2019-05-26T02:47:08.970Z,10.41
2019-05-26T02:52:12.434Z,10.49
2019-05-26T02:57:16.150Z,10.53
2019-05-26T03:02:19.830Z,10.55
2019-05-26T03:07:25.936Z,10.33
2019-05-26T03:12:30.754Z,10.48
2019-05-26T03:17:34.629Z,10.63
2019-05-26T03:22:41.736Z,10.48
2019-05-26T03:27:45.225Z,10.39
2019-05-26T03:32:48.663Z,10.66
2019-05-26T03:37:52.101Z,10.71
2019-05-26T03:42:55.538Z,10.60
2019-05-26T03:47:58.990Z,10.58
2019-05-26T03:53:02.476Z,10.66
2019-05-26T03:58:05.893Z,10.53
2019-05-26T04:03:09.312Z,10.67
2019-05-26T04:08:12.779Z,10.69
2019-05-26T04:13:16.260Z,10.74
2019-05-26T04:18:19.701Z,10.90
2019-05-26T04:23:23.188Z,10.99
2019-05-26T04:28:26.645Z,11.21
2019-05-26T04:33:30.068Z,11.33
2019-05-26T04:38:33.472Z,11.44
2019-05-26T04:43:36.972Z,11.63
2019-05-26T04:48:41.016Z,11.77
2019-05-26T04:53:44.392Z,11.92
2019-05-26T04:58:47.815Z,12.08
2019-05-26T05:03:51.252Z,12.21
2019-05-26T05:08:54.744Z,12.35
2019-05-26T05:13:58.184Z,12.49
2019-05-26T05:19:01.683Z,12.62
2019-05-26T05:24:05.297Z,12.76
2019-05-26T05:29:08.724Z,12.83
2019-05-26T05:34:12.157Z,12.94
2019-05-26T05:39:15.581Z,13.02
2019-05-26T05:44:19.011Z,13.05
2019-05-26T05:49:22.457Z,13.16
2019-05-26T05:54:25.941Z,13.26
2019-05-26T05:59:29.382Z,13.39
2019-05-26T06:04:32.811Z,13.49
2019-05-26T06:09:36.250Z,13.66
2019-05-26T06:14:40.059Z,13.81
2019-05-26T06:19:43.577Z,13.94
2019-05-26T06:24:47.084Z,14.20
2019-05-26T06:29:58.697Z,14.50
2019-05-26T06:34:55.814Z,14.71
2019-05-26T06:39:59.331Z,14.86
2019-05-26T06:45:02.784Z,15.00
2019-05-26T06:50:06.769Z,15.25
2019-05-26T06:55:10.562Z,15.52
2019-05-26T07:00:15.379Z,15.84
2019-05-26T07:05:18.905Z,16.07
2019-05-26T07:10:22.411Z,16.39
2019-05-26T07:15:25.977Z,16.74
2019-05-26T07:20:29.477Z,17.03
2019-05-26T07:25:33.570Z,17.12
2019-05-26T07:30:37.145Z,17.33
2019-05-26T07:35:40.656Z,17.43
2019-05-26T07:45:46.495Z,17.60
2019-05-26T07:50:50.001Z,17.91
2019-05-26T07:55:53.502Z,18.05
2019-05-26T08:00:56.973Z,18.08
2019-05-26T08:06:00.431Z,17.99
2019-05-26T08:11:03.864Z,18.38
2019-05-26T08:16:07.471Z,18.80
2019-05-26T08:21:10.925Z,18.92
2019-05-26T08:26:15.161Z,19.19
2019-05-26T08:31:18.994Z,19.54
2019-05-26T08:36:22.485Z,19.71
2019-05-26T08:41:25.947Z,19.61
2019-05-26T08:46:29.384Z,19.31
2019-05-26T08:51:32.819Z,19.16
2019-05-26T08:56:36.269Z,19.50
2019-05-26T09:01:39.779Z,19.41
2019-05-26T09:06:43.194Z,19.70
2019-05-26T09:11:46.651Z,19.72
2019-05-26T09:16:50.085Z,20.07
2019-05-26T09:21:53.522Z,20.09
2019-05-26T09:26:56.960Z,20.15
2019-05-26T09:32:00.402Z,19.98
2019-05-26T09:37:03.833Z,19.53
2019-05-26T09:42:07.263Z,19.43
2019-05-26T09:47:10.689Z,19.42
2019-05-26T09:52:14.188Z,19.50
2019-05-26T09:57:17.684Z,19.32
2019-05-26T10:02:21.110Z,19.56
2019-05-26T10:07:24.526Z,19.80
2019-05-26T10:12:27.967Z,19.79
2019-05-26T10:17:31.406Z,20.18
2019-05-26T10:22:34.903Z,20.34
2019-05-26T10:27:42.167Z,20.65
2019-05-26T10:32:45.769Z,20.56
2019-05-26T10:37:49.185Z,20.86
2019-05-26T10:42:52.608Z,21.07
2019-05-26T10:47:56.064Z,21.27
2019-05-26T10:52:59.498Z,21.43
2019-05-26T10:58:03.024Z,21.50
2019-05-26T11:03:06.474Z,21.50
2019-05-26T11:08:09.900Z,21.72
2019-05-26T11:13:13.333Z,21.71
2019-05-26T11:18:16.728Z,21.86
2019-05-26T11:23:20.169Z,21.78
2019-05-26T11:28:23.597Z,21.71
2019-05-26T11:33:27.047Z,21.65
2019-05-26T11:38:33.463Z,22.19
2019-05-26T11:43:35.621Z,22.37
2019-05-26T11:48:39.542Z,22.37
2019-05-26T11:53:43.139Z,22.13
2019-05-26T11:58:46.591Z,22.30
2019-05-26T12:03:50.025Z,22.56
2019-05-26T12:08:53.500Z,22.64
2019-05-26T12:13:56.942Z,23.02
2019-05-26T12:19:00.369Z,23.50
2019-05-26T12:24:03.922Z,23.77
2019-05-26T12:29:07.307Z,24.01
2019-05-26T12:34:10.727Z,23.88
2019-05-26T12:39:14.150Z,23.81
2019-05-26T12:44:17.598Z,24.04
2019-05-26T12:49:21.031Z,24.27
2019-05-26T12:54:24.455Z,24.53
2019-05-26T12:59:27.916Z,24.54
2019-05-26T13:04:31.352Z,24.26
2019-05-26T13:09:34.805Z,24.46
2019-05-26T13:14:38.244Z,24.33
2019-05-26T13:19:41.674Z,24.49
2019-05-26T13:24:45.081Z,24.86
2019-05-26T13:29:48.933Z,24.57
2019-05-26T13:34:52.320Z,24.53
2019-05-26T13:39:55.822Z,24.67
2019-05-26T13:44:59.250Z,24.56
2019-05-26T13:50:02.763Z,24.70
2019-05-26T13:55:08.343Z,24.96
2019-05-26T14:00:15.411Z,25.26
2019-05-26T14:05:19.215Z,24.95
2019-05-26T14:10:31.575Z,24.97
2019-05-26T14:15:38.812Z,25.12
2019-05-26T14:20:41.559Z,25.09
2019-05-26T14:25:44.979Z,25.18
2019-05-26T14:30:48.474Z,25.09
2019-05-26T14:35:51.955Z,24.73
2019-05-26T14:40:55.355Z,24.13
2019-05-26T14:45:58.751Z,24.13
2019-05-26T14:51:02.183Z,24.01
2019-05-26T14:56:05.592Z,23.71
2019-05-26T15:01:09.028Z,23.52
2019-05-26T15:06:12.466Z,23.42
2019-05-26T15:11:15.881Z,23.16
2019-05-26T15:16:19.302Z,23.12
2019-05-26T15:21:22.723Z,22.67
2019-05-26T15:26:26.150Z,22.53
2019-05-26T15:31:29.568Z,22.28
2019-05-26T15:36:32.993Z,22.30
2019-05-26T15:41:37.346Z,22.33
2019-05-26T15:46:40.883Z,22.22
2019-05-26T15:51:44.391Z,22.32
2019-05-26T15:56:47.808Z,22.37
2019-05-26T16:01:51.452Z,22.39
2019-05-26T16:06:54.912Z,22.30
2019-05-26T16:17:19.588Z,22.22
2019-05-26T16:22:23.111Z,22.17
2019-05-26T16:27:26.550Z,22.19
2019-05-26T16:32:29.983Z,22.33
2019-05-26T16:37:33.539Z,22.41
2019-05-26T16:42:36.986Z,22.36
2019-05-26T16:47:40.394Z,22.40
2019-05-26T16:52:43.809Z,22.19
2019-05-26T16:57:47.243Z,22.04
2019-05-26T17:02:50.685Z,22.10
2019-05-26T17:07:54.121Z,22.10
2019-05-26T17:12:57.552Z,22.03
2019-05-26T17:18:00.976Z,21.96
2019-05-26T17:23:04.456Z,21.89
2019-05-26T17:28:07.893Z,21.58
2019-05-26T17:33:12.910Z,21.58
2019-05-26T17:38:16.428Z,21.28
2019-05-26T17:43:19.858Z,21.28
2019-05-26T17:48:23.962Z,21.10
2019-05-26T17:53:27.454Z,21.10
2019-05-26T17:58:30.866Z,21.15
2019-05-26T18:03:34.289Z,20.95
2019-05-26T18:08:37.770Z,20.95
2019-05-26T18:13:41.195Z,21.09
2019-05-26T18:18:44.616Z,21.16
2019-05-26T18:23:48.057Z,21.15
2019-05-26T18:28:51.460Z,21.17
2019-05-26T18:33:54.885Z,21.08
2019-05-26T18:38:58.302Z,21.02
2019-05-26T18:44:01.732Z,21.02
2019-05-26T18:49:05.319Z,20.90
2019-05-26T18:54:08.833Z,21.03
2019-05-26T18:59:12.277Z,20.89
2019-05-26T19:04:16.019Z,20.79
2019-05-26T19:09:19.444Z,20.62
2019-05-26T19:14:22.887Z,20.51
2019-05-26T19:19:26.385Z,20.48
2019-05-26T19:24:29.811Z,20.27
2019-05-26T19:29:33.282Z,20.19
2019-05-26T19:34:36.736Z,20.22
2019-05-26T19:39:40.145Z,20.01
2019-05-26T19:44:43.582Z,19.97
2019-05-26T19:49:47.008Z,19.93
2019-05-26T19:54:50.463Z,19.85
2019-05-26T19:59:54.271Z,19.80
2019-05-26T20:04:57.687Z,19.76
2019-05-26T20:10:01.525Z,19.74
2019-05-26T20:15:07.976Z,19.69
2019-05-26T20:20:12.505Z,19.59
2019-05-26T20:25:17.086Z,19.48
2019-05-26T20:30:22.866Z,19.37
2019-05-26T20:35:26.488Z,19.23
2019-05-26T20:40:29.983Z,19.16
2019-05-26T20:45:33.407Z,19.08
2019-05-26T20:50:36.869Z,18.99
2019-05-26T20:55:40.336Z,18.89
2019-05-26T21:00:43.762Z,18.79
2019-05-26T21:05:47.413Z,18.71
2019-05-26T21:10:50.833Z,18.62
2019-05-26T21:15:54.269Z,18.61
2019-05-26T21:20:57.717Z,18.46
2019-05-26T21:26:01.181Z,18.42
2019-05-26T21:31:04.615Z,18.43
2019-05-26T21:36:08.158Z,18.33
2019-05-26T21:41:11.571Z,18.31
2019-05-26T21:46:15.328Z,18.22
2019-05-26T21:51:18.823Z,18.20
2019-05-26T21:56:22.264Z,18.17
2019-05-26T22:01:25.789Z,18.16
2019-05-26T22:06:29.260Z,18.09
2019-05-26T22:11:32.703Z,18.06
2019-05-26T22:16:36.142Z,17.97
2019-05-26T22:21:39.622Z,17.93
2019-05-26T22:26:43.068Z,17.87
2019-05-26T22:31:46.495Z,17.83
2019-05-26T22:36:49.927Z,17.72
2019-05-26T22:41:53.348Z,17.75
2019-05-26T22:46:56.774Z,17.67
2019-05-26T22:52:00.198Z,17.67
2019-05-26T22:57:03.639Z,17.68
2019-05-26T23:02:07.733Z,17.70
2019-05-26T23:07:11.098Z,17.64
2019-05-26T23:12:14.509Z,17.55
2019-05-26T23:17:17.927Z,17.60
2019-05-26T23:22:21.361Z,17.56
2019-05-26T23:27:24.793Z,17.58
2019-05-26T23:32:28.214Z,17.52
2019-05-26T23:37:31.639Z,17.53
2019-05-26T23:42:35.139Z,17.50
2019-05-26T23:47:38.582Z,17.48
2019-05-26T23:52:42.016Z,17.49
2019-05-26T23:57:45.470Z,17.53
